sensor_id;sensor_type;location;lat;lon;timestamp;P1;durP1;ratioP1;P2;durP2;ratioP2
16979;SDS011;42288;52.182;21.156;2022-12-15T00:01:44;41.67;;;19.83;;
16979;SDS011;42288;52.182;21.156;2022-12-15T00:04:28;46.90;;;21.60;;
16979;SDS011;42288;52.182;21.156;2022-12-15T00:07:12;48.07;;;22.37;;
16979;SDS011;42288;52.182;21.156;2022-12-15T00:09:56;46.67;;;21.23;;
16979;SDS011;42288;52.182;21.156;2022-12-15T00:12:40;41.43;;;20.60;;
16979;SDS011;42288;52.182;21.156;2022-12-15T00:15:24;46.43;;;21.03;;
16979;SDS011;42288;52.182;21.156;2022-12-15T00:18:08;46.57;;;21.73;;
16979;SDS011;42288;52.182;21.156;2022-12-15T00:20:55;43.50;;;21.10;;
16979;SDS011;42288;52.182;21.156;2022-12-15T00:23:40;46.30;;;21.40;;
16979;SDS011;42288;52.182;21.156;2022-12-15T00:26:24;48.00;;;20.37;;
16979;SDS011;42288;52.182;21.156;2022-12-15T00:29:08;46.07;;;21.67;;
16979;SDS011;42288;52.182;21.156;2022-12-15T00:31:52;49.07;;;21.77;;
16979;SDS011;42288;52.182;21.156;2022-12-15T00:34:36;47.77;;;21.10;;
16979;SDS011;42288;52.182;21.156;2022-12-15T00:37:20;44.30;;;20.07;;
16979;SDS011;42288;52.182;21.156;2022-12-15T00:40:04;43.00;;;20.43;;
16979;SDS011;42288;52.182;21.156;2022-12-15T00:42:31;40.70;;;19.57;;
16979;SDS011;42288;52.182;21.156;2022-12-15T00:44:56;44.60;;;19.77;;
16979;SDS011;42288;52.182;21.156;2022-12-15T00:47:22;44.27;;;20.77;;
16979;SDS011;42288;52.182;21.156;2022-12-15T00:49:49;47.93;;;19.83;;
16979;SDS011;42288;52.182;21.156;2022-12-15T00:52:33;49.30;;;22.23;;
16979;SDS011;42288;52.182;21.156;2022-12-15T00:55:17;50.00;;;22.00;;
16979;SDS011;42288;52.182;21.156;2022-12-15T00:58:01;48.77;;;22.53;;
16979;SDS011;42288;52.182;21.156;2022-12-15T01:00:46;44.67;;;21.23;;
16979;SDS011;42288;52.182;21.156;2022-12-15T01:03:30;39.40;;;19.13;;
16979;SDS011;42288;52.182;21.156;2022-12-15T01:06:15;46.97;;;20.40;;
16979;SDS011;42288;52.182;21.156;2022-12-15T01:09:01;42.70;;;19.53;;
16979;SDS011;42288;52.182;21.156;2022-12-15T01:11:46;41.70;;;20.23;;
16979;SDS011;42288;52.182;21.156;2022-12-15T01:14:31;44.97;;;20.53;;
16979;SDS011;42288;52.182;21.156;2022-12-15T01:17:16;39.13;;;19.13;;
16979;SDS011;42288;52.182;21.156;2022-12-15T01:20:00;41.57;;;19.57;;
16979;SDS011;42288;52.182;21.156;2022-12-15T01:22:49;43.20;;;19.80;;
16979;SDS011;42288;52.182;21.156;2022-12-15T01:25:17;45.20;;;21.73;;
16979;SDS011;42288;52.182;21.156;2022-12-15T01:27:44;43.37;;;20.43;;
16979;SDS011;42288;52.182;21.156;2022-12-15T01:30:11;49.60;;;21.10;;
16979;SDS011;42288;52.182;21.156;2022-12-15T01:32:38;42.37;;;19.77;;
16979;SDS011;42288;52.182;21.156;2022-12-15T01:35:04;43.67;;;21.13;;
16979;SDS011;42288;52.182;21.156;2022-12-15T01:37:31;41.90;;;19.77;;
16979;SDS011;42288;52.182;21.156;2022-12-15T01:39:57;42.03;;;20.73;;
16979;SDS011;42288;52.182;21.156;2022-12-15T01:42:42;44.93;;;20.67;;
16979;SDS011;42288;52.182;21.156;2022-12-15T01:45:24;45.80;;;20.40;;
16979;SDS011;42288;52.182;21.156;2022-12-15T01:48:04;46.27;;;20.77;;
16979;SDS011;42288;52.182;21.156;2022-12-15T01:50:36;46.50;;;20.47;;
16979;SDS011;42288;52.182;21.156;2022-12-15T01:53:06;52.37;;;20.30;;
16979;SDS011;42288;52.182;21.156;2022-12-15T01:55:33;55.97;;;21.37;;
16979;SDS011;42288;52.182;21.156;2022-12-15T01:58:01;45.03;;;20.83;;
16979;SDS011;42288;52.182;21.156;2022-12-15T02:00:30;44.33;;;20.50;;
16979;SDS011;42288;52.182;21.156;2022-12-15T02:02:57;42.30;;;21.43;;
16979;SDS011;42288;52.182;21.156;2022-12-15T02:05:24;45.10;;;20.90;;
16979;SDS011;42288;52.182;21.156;2022-12-15T02:07:52;45.60;;;20.07;;
16979;SDS011;42288;52.182;21.156;2022-12-15T02:10:17;41.23;;;20.73;;
16979;SDS011;42288;52.182;21.156;2022-12-15T02:12:52;46.17;;;20.57;;
16979;SDS011;42288;52.182;21.156;2022-12-15T02:18:24;47.03;;;19.60;;
16979;SDS011;42288;52.182;21.156;2022-12-15T02:21:01;43.07;;;19.40;;
16979;SDS011;42288;52.182;21.156;2022-12-15T02:31:59;42.40;;;21.03;;
16979;SDS011;42288;52.182;21.156;2022-12-15T02:37:37;44.67;;;18.90;;
16979;SDS011;42288;52.182;21.156;2022-12-15T02:40:04;43.50;;;20.10;;
16979;SDS011;42288;52.182;21.156;2022-12-15T02:42:32;38.17;;;19.70;;
16979;SDS011;42288;52.182;21.156;2022-12-15T02:45:06;39.97;;;19.37;;
16979;SDS011;42288;52.182;21.156;2022-12-15T02:47:40;37.80;;;18.70;;
16979;SDS011;42288;52.182;21.156;2022-12-15T02:52:50;39.67;;;18.60;;
16979;SDS011;42288;52.182;21.156;2022-12-15T02:58:14;45.00;;;19.63;;
16979;SDS011;42288;52.182;21.156;2022-12-15T03:00:50;43.27;;;20.30;;
16979;SDS011;42288;52.182;21.156;2022-12-15T03:03:22;42.60;;;20.67;;
16979;SDS011;42288;52.182;21.156;2022-12-15T03:05:49;48.60;;;23.20;;
16979;SDS011;42288;52.182;21.156;2022-12-15T03:08:18;39.87;;;20.43;;
16979;SDS011;42288;52.182;21.156;2022-12-15T03:10:45;42.70;;;20.93;;
16979;SDS011;42288;52.182;21.156;2022-12-15T03:13:11;42.53;;;20.77;;
16979;SDS011;42288;52.182;21.156;2022-12-15T03:15:38;45.80;;;20.67;;
16979;SDS011;42288;52.182;21.156;2022-12-15T03:18:03;43.67;;;19.17;;
16979;SDS011;42288;52.182;21.156;2022-12-15T03:20:29;44.33;;;20.70;;
16979;SDS011;42288;52.182;21.156;2022-12-15T03:22:55;46.40;;;20.33;;
16979;SDS011;42288;52.182;21.156;2022-12-15T03:25:20;47.27;;;20.20;;
16979;SDS011;42288;52.182;21.156;2022-12-15T03:27:46;46.60;;;22.67;;
16979;SDS011;42288;52.182;21.156;2022-12-15T03:30:11;45.50;;;22.20;;
16979;SDS011;42288;52.182;21.156;2022-12-15T03:32:37;42.00;;;19.87;;
16979;SDS011;42288;52.182;21.156;2022-12-15T03:35:03;44.27;;;20.43;;
16979;SDS011;42288;52.182;21.156;2022-12-15T03:37:29;42.47;;;19.83;;
16979;SDS011;42288;52.182;21.156;2022-12-15T03:39:55;43.30;;;19.70;;
16979;SDS011;42288;52.182;21.156;2022-12-15T03:42:20;44.87;;;20.83;;
16979;SDS011;42288;52.182;21.156;2022-12-15T03:45:06;49.47;;;21.20;;
16979;SDS011;42288;52.182;21.156;2022-12-15T03:47:32;44.80;;;21.47;;
16979;SDS011;42288;52.182;21.156;2022-12-15T03:49:57;46.57;;;20.80;;
16979;SDS011;42288;52.182;21.156;2022-12-15T03:52:23;45.40;;;22.00;;
16979;SDS011;42288;52.182;21.156;2022-12-15T03:54:49;40.97;;;19.80;;
16979;SDS011;42288;52.182;21.156;2022-12-15T03:57:14;43.23;;;19.37;;
16979;SDS011;42288;52.182;21.156;2022-12-15T03:59:40;45.27;;;20.83;;
16979;SDS011;42288;52.182;21.156;2022-12-15T04:02:05;44.70;;;20.50;;
16979;SDS011;42288;52.182;21.156;2022-12-15T04:04:33;47.87;;;23.10;;
16979;SDS011;42288;52.182;21.156;2022-12-15T04:06:58;47.70;;;22.60;;
16979;SDS011;42288;52.182;21.156;2022-12-15T04:09:24;46.47;;;21.27;;
16979;SDS011;42288;52.182;21.156;2022-12-15T04:11:49;45.40;;;21.63;;
16979;SDS011;42288;52.182;21.156;2022-12-15T04:14:15;40.47;;;20.73;;
16979;SDS011;42288;52.182;21.156;2022-12-15T04:16:40;44.30;;;22.13;;
16979;SDS011;42288;52.182;21.156;2022-12-15T04:19:06;45.80;;;21.57;;
16979;SDS011;42288;52.182;21.156;2022-12-15T04:21:50;48.00;;;21.57;;
16979;SDS011;42288;52.182;21.156;2022-12-15T04:24:15;46.80;;;21.03;;
16979;SDS011;42288;52.182;21.156;2022-12-15T04:26:59;51.17;;;21.97;;
16979;SDS011;42288;52.182;21.156;2022-12-15T04:29:43;50.50;;;23.33;;
16979;SDS011;42288;52.182;21.156;2022-12-15T04:32:28;57.17;;;24.67;;
16979;SDS011;42288;52.182;21.156;2022-12-15T04:35:12;54.50;;;23.63;;
16979;SDS011;42288;52.182;21.156;2022-12-15T04:37:56;63.47;;;26.03;;
16979;SDS011;42288;52.182;21.156;2022-12-15T04:40:40;68.00;;;26.90;;
16979;SDS011;42288;52.182;21.156;2022-12-15T04:43:24;58.80;;;26.50;;
16979;SDS011;42288;52.182;21.156;2022-12-15T04:46:08;62.07;;;26.73;;
16979;SDS011;42288;52.182;21.156;2022-12-15T04:48:52;60.73;;;25.90;;
16979;SDS011;42288;52.182;21.156;2022-12-15T04:51:36;61.43;;;26.53;;
16979;SDS011;42288;52.182;21.156;2022-12-15T04:54:20;59.57;;;26.30;;
16979;SDS011;42288;52.182;21.156;2022-12-15T04:57:04;65.63;;;27.43;;
16979;SDS011;42288;52.182;21.156;2022-12-15T04:59:48;59.10;;;26.83;;
16979;SDS011;42288;52.182;21.156;2022-12-15T05:02:32;58.60;;;25.60;;
16979;SDS011;42288;52.182;21.156;2022-12-15T05:05:16;56.30;;;25.07;;
16979;SDS011;42288;52.182;21.156;2022-12-15T05:08:00;54.77;;;24.37;;
16979;SDS011;42288;52.182;21.156;2022-12-15T05:10:44;53.97;;;24.37;;
16979;SDS011;42288;52.182;21.156;2022-12-15T05:13:28;51.97;;;22.60;;
16979;SDS011;42288;52.182;21.156;2022-12-15T05:16:13;54.83;;;24.53;;
16979;SDS011;42288;52.182;21.156;2022-12-15T05:18:57;49.53;;;22.33;;
16979;SDS011;42288;52.182;21.156;2022-12-15T05:21:41;53.10;;;23.17;;
16979;SDS011;42288;52.182;21.156;2022-12-15T05:24:25;61.07;;;25.13;;
16979;SDS011;42288;52.182;21.156;2022-12-15T05:27:09;57.53;;;27.47;;
16979;SDS011;42288;52.182;21.156;2022-12-15T05:29:53;50.90;;;23.40;;
16979;SDS011;42288;52.182;21.156;2022-12-15T05:32:37;51.77;;;23.13;;
16979;SDS011;42288;52.182;21.156;2022-12-15T05:35:03;60.13;;;26.47;;
16979;SDS011;42288;52.182;21.156;2022-12-15T05:37:29;61.27;;;27.50;;
16979;SDS011;42288;52.182;21.156;2022-12-15T05:39:54;64.33;;;27.13;;
16979;SDS011;42288;52.182;21.156;2022-12-15T05:42:20;60.90;;;27.43;;
16979;SDS011;42288;52.182;21.156;2022-12-15T05:44:45;60.30;;;25.97;;
16979;SDS011;42288;52.182;21.156;2022-12-15T05:47:11;64.50;;;27.13;;
16979;SDS011;42288;52.182;21.156;2022-12-15T05:49:36;73.03;;;31.87;;
16979;SDS011;42288;52.182;21.156;2022-12-15T05:52:02;70.37;;;30.30;;
16979;SDS011;42288;52.182;21.156;2022-12-15T05:54:28;56.77;;;25.97;;
16979;SDS011;42288;52.182;21.156;2022-12-15T05:56:53;54.77;;;24.83;;
16979;SDS011;42288;52.182;21.156;2022-12-15T05:59:19;61.20;;;27.87;;
16979;SDS011;42288;52.182;21.156;2022-12-15T06:01:44;54.83;;;24.87;;
16979;SDS011;42288;52.182;21.156;2022-12-15T06:04:10;61.53;;;28.37;;
16979;SDS011;42288;52.182;21.156;2022-12-15T06:06:36;56.73;;;26.17;;
16979;SDS011;42288;52.182;21.156;2022-12-15T06:09:02;52.77;;;24.80;;
16979;SDS011;42288;52.182;21.156;2022-12-15T06:11:28;61.67;;;28.07;;
16979;SDS011;42288;52.182;21.156;2022-12-15T06:13:54;55.63;;;24.60;;
16979;SDS011;42288;52.182;21.156;2022-12-15T06:16:20;52.13;;;24.63;;
16979;SDS011;42288;52.182;21.156;2022-12-15T06:18:52;56.50;;;25.63;;
16979;SDS011;42288;52.182;21.156;2022-12-15T06:21:20;53.80;;;26.03;;
16979;SDS011;42288;52.182;21.156;2022-12-15T06:23:48;48.30;;;24.00;;
16979;SDS011;42288;52.182;21.156;2022-12-15T06:28:45;60.03;;;26.83;;
16979;SDS011;42288;52.182;21.156;2022-12-15T06:31:12;57.60;;;27.03;;
16979;SDS011;42288;52.182;21.156;2022-12-15T06:33:39;59.07;;;25.87;;
16979;SDS011;42288;52.182;21.156;2022-12-15T06:36:06;55.73;;;24.13;;
16979;SDS011;42288;52.182;21.156;2022-12-15T06:38:34;59.23;;;26.10;;
16979;SDS011;42288;52.182;21.156;2022-12-15T06:41:01;56.90;;;26.67;;
16979;SDS011;42288;52.182;21.156;2022-12-15T06:43:28;61.97;;;24.53;;
16979;SDS011;42288;52.182;21.156;2022-12-15T06:45:55;58.20;;;25.23;;
16979;SDS011;42288;52.182;21.156;2022-12-15T06:48:21;60.00;;;27.23;;
16979;SDS011;42288;52.182;21.156;2022-12-15T06:50:47;64.00;;;25.63;;
16979;SDS011;42288;52.182;21.156;2022-12-15T06:53:14;56.47;;;25.33;;
16979;SDS011;42288;52.182;21.156;2022-12-15T06:55:43;63.77;;;29.40;;
16979;SDS011;42288;52.182;21.156;2022-12-15T06:58:10;63.47;;;26.80;;
16979;SDS011;42288;52.182;21.156;2022-12-15T07:00:36;57.47;;;25.97;;
16979;SDS011;42288;52.182;21.156;2022-12-15T07:03:08;58.23;;;25.63;;
16979;SDS011;42288;52.182;21.156;2022-12-15T07:05:37;62.50;;;26.40;;
16979;SDS011;42288;52.182;21.156;2022-12-15T07:08:02;62.20;;;28.47;;
16979;SDS011;42288;52.182;21.156;2022-12-15T07:10:28;62.93;;;26.67;;
16979;SDS011;42288;52.182;21.156;2022-12-15T07:12:56;69.33;;;27.17;;
16979;SDS011;42288;52.182;21.156;2022-12-15T07:15:22;58.60;;;27.60;;
16979;SDS011;42288;52.182;21.156;2022-12-15T07:17:48;58.97;;;26.93;;
16979;SDS011;42288;52.182;21.156;2022-12-15T07:20:15;72.80;;;32.50;;
16979;SDS011;42288;52.182;21.156;2022-12-15T07:22:41;73.30;;;32.20;;
16979;SDS011;42288;52.182;21.156;2022-12-15T07:25:06;76.27;;;31.80;;
16979;SDS011;42288;52.182;21.156;2022-12-15T07:27:32;70.83;;;30.40;;
16979;SDS011;42288;52.182;21.156;2022-12-15T07:29:58;70.60;;;32.20;;
16979;SDS011;42288;52.182;21.156;2022-12-15T07:32:23;66.77;;;29.10;;
16979;SDS011;42288;52.182;21.156;2022-12-15T07:34:49;69.57;;;30.27;;
16979;SDS011;42288;52.182;21.156;2022-12-15T07:37:15;74.23;;;29.93;;
16979;SDS011;42288;52.182;21.156;2022-12-15T07:39:40;70.27;;;30.73;;
16979;SDS011;42288;52.182;21.156;2022-12-15T07:42:06;74.63;;;32.47;;
16979;SDS011;42288;52.182;21.156;2022-12-15T07:44:31;65.27;;;29.27;;
16979;SDS011;42288;52.182;21.156;2022-12-15T07:46:57;69.03;;;28.40;;
16979;SDS011;42288;52.182;21.156;2022-12-15T07:49:22;65.43;;;30.07;;
16979;SDS011;42288;52.182;21.156;2022-12-15T07:51:48;71.43;;;31.97;;
16979;SDS011;42288;52.182;21.156;2022-12-15T07:54:14;65.93;;;30.63;;
16979;SDS011;42288;52.182;21.156;2022-12-15T07:56:40;77.80;;;33.63;;
16979;SDS011;42288;52.182;21.156;2022-12-15T07:59:06;73.00;;;31.47;;
16979;SDS011;42288;52.182;21.156;2022-12-15T08:01:32;79.63;;;33.20;;
16979;SDS011;42288;52.182;21.156;2022-12-15T08:03:59;70.27;;;30.07;;
16979;SDS011;42288;52.182;21.156;2022-12-15T08:06:24;65.17;;;29.60;;
16979;SDS011;42288;52.182;21.156;2022-12-15T08:08:50;70.53;;;29.63;;
16979;SDS011;42288;52.182;21.156;2022-12-15T08:11:16;70.90;;;29.13;;
16979;SDS011;42288;52.182;21.156;2022-12-15T08:13:42;61.07;;;28.40;;
16979;SDS011;42288;52.182;21.156;2022-12-15T08:16:09;71.60;;;30.07;;
16979;SDS011;42288;52.182;21.156;2022-12-15T08:18:35;72.27;;;31.87;;
16979;SDS011;42288;52.182;21.156;2022-12-15T08:21:04;70.37;;;29.37;;
16979;SDS011;42288;52.182;21.156;2022-12-15T08:23:32;60.83;;;27.37;;
16979;SDS011;42288;52.182;21.156;2022-12-15T08:26:08;68.93;;;30.83;;
16979;SDS011;42288;52.182;21.156;2022-12-15T08:28:36;74.40;;;30.33;;
16979;SDS011;42288;52.182;21.156;2022-12-15T08:31:03;72.73;;;31.37;;
16979;SDS011;42288;52.182;21.156;2022-12-15T08:33:30;70.70;;;30.97;;
16979;SDS011;42288;52.182;21.156;2022-12-15T08:35:56;64.00;;;26.93;;
16979;SDS011;42288;52.182;21.156;2022-12-15T08:38:27;65.33;;;26.60;;
16979;SDS011;42288;52.182;21.156;2022-12-15T08:40:53;63.23;;;27.23;;
16979;SDS011;42288;52.182;21.156;2022-12-15T08:43:19;59.27;;;26.80;;
16979;SDS011;42288;52.182;21.156;2022-12-15T08:45:44;56.17;;;25.03;;
16979;SDS011;42288;52.182;21.156;2022-12-15T08:48:10;47.03;;;21.07;;
16979;SDS011;42288;52.182;21.156;2022-12-15T08:50:35;42.80;;;19.20;;
16979;SDS011;42288;52.182;21.156;2022-12-15T08:53:01;46.83;;;20.43;;
16979;SDS011;42288;52.182;21.156;2022-12-15T08:55:26;51.20;;;22.40;;
16979;SDS011;42288;52.182;21.156;2022-12-15T08:57:52;49.30;;;20.50;;
16979;SDS011;42288;52.182;21.156;2022-12-15T09:00:18;50.20;;;22.70;;
16979;SDS011;42288;52.182;21.156;2022-12-15T09:02:44;43.13;;;19.20;;
16979;SDS011;42288;52.182;21.156;2022-12-15T09:05:09;44.63;;;18.73;;
16979;SDS011;42288;52.182;21.156;2022-12-15T09:07:35;43.37;;;18.30;;
16979;SDS011;42288;52.182;21.156;2022-12-15T09:10:00;48.27;;;20.83;;
16979;SDS011;42288;52.182;21.156;2022-12-15T09:12:26;46.87;;;19.87;;
16979;SDS011;42288;52.182;21.156;2022-12-15T09:14:52;38.33;;;19.00;;
16979;SDS011;42288;52.182;21.156;2022-12-15T09:17:17;50.97;;;21.40;;
16979;SDS011;42288;52.182;21.156;2022-12-15T09:19:43;48.23;;;20.10;;
16979;SDS011;42288;52.182;21.156;2022-12-15T09:22:08;53.20;;;21.77;;
16979;SDS011;42288;52.182;21.156;2022-12-15T09:24:34;50.53;;;21.80;;
16979;SDS011;42288;52.182;21.156;2022-12-15T09:27:00;50.87;;;22.23;;
16979;SDS011;42288;52.182;21.156;2022-12-15T09:29:25;48.90;;;22.00;;
16979;SDS011;42288;52.182;21.156;2022-12-15T09:31:51;59.70;;;23.20;;
16979;SDS011;42288;52.182;21.156;2022-12-15T09:34:16;58.43;;;25.20;;
16979;SDS011;42288;52.182;21.156;2022-12-15T09:36:42;51.17;;;22.57;;
16979;SDS011;42288;52.182;21.156;2022-12-15T09:39:07;51.30;;;21.97;;
16979;SDS011;42288;52.182;21.156;2022-12-15T09:41:36;58.70;;;24.17;;
16979;SDS011;42288;52.182;21.156;2022-12-15T09:44:08;57.67;;;24.27;;
16979;SDS011;42288;52.182;21.156;2022-12-15T09:46:47;53.40;;;24.37;;
16979;SDS011;42288;52.182;21.156;2022-12-15T09:52:22;49.37;;;21.47;;
16979;SDS011;42288;52.182;21.156;2022-12-15T09:55:28;49.93;;;21.00;;
16979;SDS011;42288;52.182;21.156;2022-12-15T09:58:01;54.97;;;23.40;;
16979;SDS011;42288;52.182;21.156;2022-12-15T10:08:31;52.57;;;23.13;;
16979;SDS011;42288;52.182;21.156;2022-12-15T10:16:22;52.23;;;22.67;;
16979;SDS011;42288;52.182;21.156;2022-12-15T10:22:27;51.63;;;22.80;;
16979;SDS011;42288;52.182;21.156;2022-12-15T10:24:57;50.80;;;22.07;;
16979;SDS011;42288;52.182;21.156;2022-12-15T10:30:10;50.27;;;20.83;;
16979;SDS011;42288;52.182;21.156;2022-12-15T10:37:46;49.83;;;20.90;;
16979;SDS011;42288;52.182;21.156;2022-12-15T10:40:21;53.13;;;21.97;;
16979;SDS011;42288;52.182;21.156;2022-12-15T10:43:31;50.10;;;21.33;;
16979;SDS011;42288;52.182;21.156;2022-12-15T10:46:01;51.87;;;22.70;;
16979;SDS011;42288;52.182;21.156;2022-12-15T10:48:37;53.63;;;22.87;;
16979;SDS011;42288;52.182;21.156;2022-12-15T10:53:38;53.93;;;23.57;;
16979;SDS011;42288;52.182;21.156;2022-12-15T10:56:07;61.47;;;26.67;;
16979;SDS011;42288;52.182;21.156;2022-12-15T10:58:44;61.50;;;26.20;;
16979;SDS011;42288;52.182;21.156;2022-12-15T11:01:15;69.97;;;27.63;;
16979;SDS011;42288;52.182;21.156;2022-12-15T11:03:43;68.53;;;25.97;;
16979;SDS011;42288;52.182;21.156;2022-12-15T11:06:13;59.67;;;26.13;;
16979;SDS011;42288;52.182;21.156;2022-12-15T11:08:42;62.47;;;25.23;;
16979;SDS011;42288;52.182;21.156;2022-12-15T11:11:30;62.17;;;26.17;;
16979;SDS011;42288;52.182;21.156;2022-12-15T11:14:17;58.50;;;24.83;;
16979;SDS011;42288;52.182;21.156;2022-12-15T11:17:06;55.67;;;23.90;;
16979;SDS011;42288;52.182;21.156;2022-12-15T11:19:40;64.33;;;26.57;;
16979;SDS011;42288;52.182;21.156;2022-12-15T11:25:01;63.77;;;26.50;;
16979;SDS011;42288;52.182;21.156;2022-12-15T11:27:46;77.17;;;26.83;;
16979;SDS011;42288;52.182;21.156;2022-12-15T11:32:49;63.70;;;25.60;;
16979;SDS011;42288;52.182;21.156;2022-12-15T11:35:29;72.10;;;28.23;;
16979;SDS011;42288;52.182;21.156;2022-12-15T11:38:20;71.03;;;26.20;;
16979;SDS011;42288;52.182;21.156;2022-12-15T11:40:49;77.40;;;31.13;;
16979;SDS011;42288;52.182;21.156;2022-12-15T11:54:34;83.53;;;31.43;;
16979;SDS011;42288;52.182;21.156;2022-12-15T11:57:19;91.30;;;33.80;;
16979;SDS011;42288;52.182;21.156;2022-12-15T12:05:30;79.83;;;32.90;;
16979;SDS011;42288;52.182;21.156;2022-12-15T12:08:21;79.20;;;31.77;;
16979;SDS011;42288;52.182;21.156;2022-12-15T12:11:47;90.97;;;32.13;;
16979;SDS011;42288;52.182;21.156;2022-12-15T12:20:17;76.00;;;28.13;;
16979;SDS011;42288;52.182;21.156;2022-12-15T12:23:03;85.20;;;31.07;;
16979;SDS011;42288;52.182;21.156;2022-12-15T12:25:34;87.97;;;30.43;;
16979;SDS011;42288;52.182;21.156;2022-12-15T12:28:15;84.03;;;30.90;;
16979;SDS011;42288;52.182;21.156;2022-12-15T12:30:46;78.20;;;30.43;;
16979;SDS011;42288;52.182;21.156;2022-12-15T12:33:20;73.47;;;26.63;;
16979;SDS011;42288;52.182;21.156;2022-12-15T12:36:13;88.80;;;29.93;;
16979;SDS011;42288;52.182;21.156;2022-12-15T12:38:40;81.23;;;30.50;;
16979;SDS011;42288;52.182;21.156;2022-12-15T12:43:56;89.70;;;30.47;;
16979;SDS011;42288;52.182;21.156;2022-12-15T12:49:17;82.83;;;30.57;;
16979;SDS011;42288;52.182;21.156;2022-12-15T12:51:53;78.70;;;29.60;;
16979;SDS011;42288;52.182;21.156;2022-12-15T12:56:58;89.33;;;31.73;;
16979;SDS011;42288;52.182;21.156;2022-12-15T13:01:54;89.70;;;32.87;;
16979;SDS011;42288;52.182;21.156;2022-12-15T13:09:23;89.87;;;35.27;;
16979;SDS011;42288;52.182;21.156;2022-12-15T13:12:02;99.53;;;36.00;;
16979;SDS011;42288;52.182;21.156;2022-12-15T13:14:49;95.23;;;33.43;;
16979;SDS011;42288;52.182;21.156;2022-12-15T13:17:18;106.40;;;36.00;;
16979;SDS011;42288;52.182;21.156;2022-12-15T13:22:30;113.33;;;38.10;;
16979;SDS011;42288;52.182;21.156;2022-12-15T13:25:25;163.13;;;53.00;;
16979;SDS011;42288;52.182;21.156;2022-12-15T13:27:57;111.97;;;37.80;;
16979;SDS011;42288;52.182;21.156;2022-12-15T13:30:25;106.70;;;37.53;;
16979;SDS011;42288;52.182;21.156;2022-12-15T13:33:11;118.77;;;42.00;;
16979;SDS011;42288;52.182;21.156;2022-12-15T13:35:38;100.03;;;37.73;;
16979;SDS011;42288;52.182;21.156;2022-12-15T13:38:07;103.03;;;37.43;;
16979;SDS011;42288;52.182;21.156;2022-12-15T13:45:59;101.90;;;38.53;;
16979;SDS011;42288;52.182;21.156;2022-12-15T13:48:33;94.87;;;35.23;;
16979;SDS011;42288;52.182;21.156;2022-12-15T13:51:32;95.67;;;34.57;;
16979;SDS011;42288;52.182;21.156;2022-12-15T13:56:59;91.83;;;34.27;;
16979;SDS011;42288;52.182;21.156;2022-12-15T13:59:44;100.43;;;35.47;;
16979;SDS011;42288;52.182;21.156;2022-12-15T14:02:28;78.70;;;29.73;;
16979;SDS011;42288;52.182;21.156;2022-12-15T14:05:02;75.50;;;28.17;;
16979;SDS011;42288;52.182;21.156;2022-12-15T14:07:39;74.13;;;27.53;;
16979;SDS011;42288;52.182;21.156;2022-12-15T14:10:12;74.23;;;27.53;;
16979;SDS011;42288;52.182;21.156;2022-12-15T14:12:51;78.90;;;26.97;;
16979;SDS011;42288;52.182;21.156;2022-12-15T14:15:21;64.60;;;25.50;;
16979;SDS011;42288;52.182;21.156;2022-12-15T14:17:52;69.60;;;24.47;;
16979;SDS011;42288;52.182;21.156;2022-12-15T14:20:20;65.43;;;25.00;;
16979;SDS011;42288;52.182;21.156;2022-12-15T14:22:48;67.67;;;26.40;;
16979;SDS011;42288;52.182;21.156;2022-12-15T14:25:20;66.37;;;23.77;;
16979;SDS011;42288;52.182;21.156;2022-12-15T14:27:47;70.23;;;26.87;;
16979;SDS011;42288;52.182;21.156;2022-12-15T14:30:29;68.27;;;25.87;;
16979;SDS011;42288;52.182;21.156;2022-12-15T14:33:12;64.97;;;25.30;;
16979;SDS011;42288;52.182;21.156;2022-12-15T14:35:43;68.07;;;24.20;;
16979;SDS011;42288;52.182;21.156;2022-12-15T14:38:20;70.27;;;25.03;;
16979;SDS011;42288;52.182;21.156;2022-12-15T14:40:48;66.67;;;23.93;;
16979;SDS011;42288;52.182;21.156;2022-12-15T14:43:20;69.57;;;25.10;;
16979;SDS011;42288;52.182;21.156;2022-12-15T14:45:49;68.77;;;26.10;;
16979;SDS011;42288;52.182;21.156;2022-12-15T14:48:28;89.47;;;31.17;;
16979;SDS011;42288;52.182;21.156;2022-12-15T14:50:59;79.87;;;27.47;;
16979;SDS011;42288;52.182;21.156;2022-12-15T14:53:28;71.53;;;26.97;;
16979;SDS011;42288;52.182;21.156;2022-12-15T14:59:00;151.23;;;47.57;;
16979;SDS011;42288;52.182;21.156;2022-12-15T15:01:36;129.80;;;41.43;;
16979;SDS011;42288;52.182;21.156;2022-12-15T15:07:00;101.63;;;35.13;;
16979;SDS011;42288;52.182;21.156;2022-12-15T15:12:06;117.00;;;40.70;;
16979;SDS011;42288;52.182;21.156;2022-12-15T15:19:53;81.23;;;28.73;;
16979;SDS011;42288;52.182;21.156;2022-12-15T15:27:59;68.07;;;25.40;;
16979;SDS011;42288;52.182;21.156;2022-12-15T15:33:09;65.27;;;24.07;;
16979;SDS011;42288;52.182;21.156;2022-12-15T15:35:34;73.40;;;25.17;;
16979;SDS011;42288;52.182;21.156;2022-12-15T15:38:06;67.07;;;24.33;;
16979;SDS011;42288;52.182;21.156;2022-12-15T15:40:48;69.73;;;25.30;;
16979;SDS011;42288;52.182;21.156;2022-12-15T15:43:15;72.10;;;24.70;;
16979;SDS011;42288;52.182;21.156;2022-12-15T15:45:41;67.97;;;22.90;;
16979;SDS011;42288;52.182;21.156;2022-12-15T15:48:08;65.03;;;23.23;;
16979;SDS011;42288;52.182;21.156;2022-12-15T15:50:47;66.03;;;23.00;;
16979;SDS011;42288;52.182;21.156;2022-12-15T15:53:17;63.57;;;22.70;;
16979;SDS011;42288;52.182;21.156;2022-12-15T15:55:46;70.67;;;23.50;;
16979;SDS011;42288;52.182;21.156;2022-12-15T15:58:14;78.67;;;27.00;;
16979;SDS011;42288;52.182;21.156;2022-12-15T16:00:40;75.10;;;25.20;;
16979;SDS011;42288;52.182;21.156;2022-12-15T16:03:05;82.80;;;25.47;;
16979;SDS011;42288;52.182;21.156;2022-12-15T16:05:31;83.40;;;27.67;;
16979;SDS011;42288;52.182;21.156;2022-12-15T16:07:57;80.73;;;26.63;;
16979;SDS011;42288;52.182;21.156;2022-12-15T16:10:23;83.40;;;27.90;;
16979;SDS011;42288;52.182;21.156;2022-12-15T16:12:50;80.43;;;27.93;;
16979;SDS011;42288;52.182;21.156;2022-12-15T16:15:19;90.83;;;29.07;;
16979;SDS011;42288;52.182;21.156;2022-12-15T16:17:47;83.43;;;29.40;;
16979;SDS011;42288;52.182;21.156;2022-12-15T16:20:14;87.73;;;29.17;;
16979;SDS011;42288;52.182;21.156;2022-12-15T16:22:41;84.37;;;28.67;;
16979;SDS011;42288;52.182;21.156;2022-12-15T16:25:12;88.23;;;29.53;;
16979;SDS011;42288;52.182;21.156;2022-12-15T16:27:56;97.33;;;31.53;;
16979;SDS011;42288;52.182;21.156;2022-12-15T16:30:23;171.73;;;46.17;;
16979;SDS011;42288;52.182;21.156;2022-12-15T16:32:50;163.03;;;41.97;;
16979;SDS011;42288;52.182;21.156;2022-12-15T16:35:16;155.30;;;44.80;;
16979;SDS011;42288;52.182;21.156;2022-12-15T16:37:42;85.60;;;28.77;;
16979;SDS011;42288;52.182;21.156;2022-12-15T16:40:21;83.93;;;29.30;;
16979;SDS011;42288;52.182;21.156;2022-12-15T16:42:52;85.00;;;27.97;;
16979;SDS011;42288;52.182;21.156;2022-12-15T16:45:23;79.93;;;27.57;;
16979;SDS011;42288;52.182;21.156;2022-12-15T16:47:50;77.27;;;28.77;;